sensor_id;sensor_type;location;lat;lon;timestamp;P1;durP1;ratioP1;P2;durP2;ratioP2
39404;SDS011;25121;51.090;17.038;2023-04-24T00:00:31;24.15;;;15.07;;
39404;SDS011;25121;51.090;17.038;2023-04-24T00:01:56;20.88;;;15.07;;
39404;SDS011;25121;51.090;17.038;2023-04-24T00:03:19;21.42;;;16.60;;
39404;SDS011;25121;51.090;17.038;2023-04-24T00:04:43;25.30;;;15.38;;
39404;SDS011;25121;51.090;17.038;2023-04-24T00:06:05;23.85;;;15.88;;
39404;SDS011;25121;51.090;17.038;2023-04-24T00:07:30;30.20;;;17.33;;
39404;SDS011;25121;51.090;17.038;2023-04-24T00:08:53;21.60;;;15.05;;
39404;SDS011;25121;51.090;17.038;2023-04-24T00:10:15;25.23;;;16.63;;
39404;SDS011;25121;51.090;17.038;2023-04-24T00:11:38;22.83;;;17.20;;
39404;SDS011;25121;51.090;17.038;2023-04-24T00:13:01;25.30;;;17.30;;
39404;SDS011;25121;51.090;17.038;2023-04-24T00:14:24;23.00;;;17.15;;
39404;SDS011;25121;51.090;17.038;2023-04-24T00:15:46;27.95;;;17.85;;
39404;SDS011;25121;51.090;17.038;2023-04-24T00:17:07;24.90;;;17.08;;
39404;SDS011;25121;51.090;17.038;2023-04-24T00:18:29;24.35;;;17.63;;
39404;SDS011;25121;51.090;17.038;2023-04-24T00:19:51;28.30;;;18.13;;
39404;SDS011;25121;51.090;17.038;2023-04-24T00:21:18;26.80;;;18.20;;
39404;SDS011;25121;51.090;17.038;2023-04-24T00:22:43;27.50;;;17.83;;
39404;SDS011;25121;51.090;17.038;2023-04-24T00:24:06;27.95;;;18.17;;
39404;SDS011;25121;51.090;17.038;2023-04-24T00:25:31;24.83;;;18.15;;
39404;SDS011;25121;51.090;17.038;2023-04-24T00:26:52;29.58;;;19.50;;
39404;SDS011;25121;51.090;17.038;2023-04-24T00:28:15;28.02;;;19.58;;
39404;SDS011;25121;51.090;17.038;2023-04-24T00:29:36;27.13;;;19.02;;
39404;SDS011;25121;51.090;17.038;2023-04-24T00:30:58;30.65;;;19.95;;
39404;SDS011;25121;51.090;17.038;2023-04-24T00:32:21;30.85;;;19.85;;
39404;SDS011;25121;51.090;17.038;2023-04-24T00:33:43;26.15;;;19.55;;
39404;SDS011;25121;51.090;17.038;2023-04-24T00:35:06;28.98;;;19.63;;
39404;SDS011;25121;51.090;17.038;2023-04-24T00:36:27;25.05;;;18.85;;
39404;SDS011;25121;51.090;17.038;2023-04-24T00:37:52;27.95;;;19.42;;
39404;SDS011;25121;51.090;17.038;2023-04-24T00:39:13;28.55;;;20.15;;
39404;SDS011;25121;51.090;17.038;2023-04-24T00:40:36;30.05;;;20.33;;
39404;SDS011;25121;51.090;17.038;2023-04-24T00:41:58;33.40;;;21.08;;
39404;SDS011;25121;51.090;17.038;2023-04-24T00:43:19;25.38;;;19.85;;
39404;SDS011;25121;51.090;17.038;2023-04-24T00:44:44;29.38;;;20.65;;
39404;SDS011;25121;51.090;17.038;2023-04-24T00:46:05;26.77;;;20.52;;
39404;SDS011;25121;51.090;17.038;2023-04-24T00:47:28;28.17;;;19.90;;
39404;SDS011;25121;51.090;17.038;2023-04-24T00:48:51;27.05;;;19.42;;
39404;SDS011;25121;51.090;17.038;2023-04-24T00:50:14;28.48;;;19.90;;
39404;SDS011;25121;51.090;17.038;2023-04-24T00:53:08;35.65;;;20.52;;
39404;SDS011;25121;51.090;17.038;2023-04-24T00:54:29;28.15;;;20.48;;
39404;SDS011;25121;51.090;17.038;2023-04-24T00:55:52;28.77;;;19.98;;
39404;SDS011;25121;51.090;17.038;2023-04-24T00:57:14;31.85;;;20.85;;
39404;SDS011;25121;51.090;17.038;2023-04-24T00:59:58;30.08;;;20.02;;
39404;SDS011;25121;51.090;17.038;2023-04-24T01:01:21;29.83;;;19.63;;
39404;SDS011;25121;51.090;17.038;2023-04-24T01:02:43;27.40;;;19.40;;
39404;SDS011;25121;51.090;17.038;2023-04-24T01:04:07;25.35;;;19.88;;
39404;SDS011;25121;51.090;17.038;2023-04-24T01:05:31;28.77;;;19.48;;
39404;SDS011;25121;51.090;17.038;2023-04-24T01:06:54;26.13;;;19.80;;
39404;SDS011;25121;51.090;17.038;2023-04-24T01:08:17;28.30;;;19.63;;
39404;SDS011;25121;51.090;17.038;2023-04-24T01:09:41;28.27;;;19.75;;
39404;SDS011;25121;51.090;17.038;2023-04-24T01:11:04;28.38;;;20.00;;
39404;SDS011;25121;51.090;17.038;2023-04-24T01:12:26;30.95;;;20.48;;
39404;SDS011;25121;51.090;17.038;2023-04-24T01:13:48;31.20;;;20.35;;
39404;SDS011;25121;51.090;17.038;2023-04-24T01:15:10;31.52;;;19.25;;
39404;SDS011;25121;51.090;17.038;2023-04-24T01:16:31;25.23;;;19.15;;
39404;SDS011;25121;51.090;17.038;2023-04-24T01:17:53;28.77;;;20.38;;
39404;SDS011;25121;51.090;17.038;2023-04-24T01:19:16;28.23;;;19.02;;
39404;SDS011;25121;51.090;17.038;2023-04-24T01:20:39;28.52;;;19.92;;
39404;SDS011;25121;51.090;17.038;2023-04-24T01:22:08;32.67;;;21.08;;
39404;SDS011;25121;51.090;17.038;2023-04-24T01:23:32;29.98;;;19.92;;
39404;SDS011;25121;51.090;17.038;2023-04-24T01:24:55;26.38;;;18.45;;
39404;SDS011;25121;51.090;17.038;2023-04-24T01:26:18;26.48;;;18.52;;
39404;SDS011;25121;51.090;17.038;2023-04-24T01:27:40;26.70;;;19.25;;
39404;SDS011;25121;51.090;17.038;2023-04-24T01:29:04;32.10;;;19.80;;
39404;SDS011;25121;51.090;17.038;2023-04-24T01:30:29;24.20;;;19.30;;
39404;SDS011;25121;51.090;17.038;2023-04-24T01:31:51;35.33;;;19.30;;
39404;SDS011;25121;51.090;17.038;2023-04-24T01:33:18;26.63;;;19.35;;
39404;SDS011;25121;51.090;17.038;2023-04-24T01:34:43;26.02;;;20.30;;
39404;SDS011;25121;51.090;17.038;2023-04-24T01:36:07;27.35;;;19.45;;
39404;SDS011;25121;51.090;17.038;2023-04-24T01:37:35;29.10;;;18.95;;
39404;SDS011;25121;51.090;17.038;2023-04-24T01:38:57;26.15;;;18.80;;
39404;SDS011;25121;51.090;17.038;2023-04-24T01:40:21;34.20;;;19.20;;
39404;SDS011;25121;51.090;17.038;2023-04-24T01:41:44;29.27;;;19.35;;
39404;SDS011;25121;51.090;17.038;2023-04-24T01:43:07;30.88;;;18.95;;
39404;SDS011;25121;51.090;17.038;2023-04-24T01:44:31;31.40;;;19.23;;
39404;SDS011;25121;51.090;17.038;2023-04-24T01:45:56;28.45;;;19.98;;
39404;SDS011;25121;51.090;17.038;2023-04-24T01:47:18;29.05;;;19.23;;
39404;SDS011;25121;51.090;17.038;2023-04-24T01:48:41;32.00;;;20.20;;
39404;SDS011;25121;51.090;17.038;2023-04-24T01:50:04;30.10;;;19.52;;
39404;SDS011;25121;51.090;17.038;2023-04-24T01:51:26;27.23;;;18.67;;
39404;SDS011;25121;51.090;17.038;2023-04-24T01:52:51;30.80;;;19.65;;
39404;SDS011;25121;51.090;17.038;2023-04-24T01:54:13;27.15;;;17.55;;
39404;SDS011;25121;51.090;17.038;2023-04-24T01:55:34;25.20;;;18.30;;
39404;SDS011;25121;51.090;17.038;2023-04-24T01:56:58;23.52;;;17.17;;
39404;SDS011;25121;51.090;17.038;2023-04-24T01:58:21;23.48;;;17.58;;
39404;SDS011;25121;51.090;17.038;2023-04-24T01:59:44;26.50;;;19.42;;
39404;SDS011;25121;51.090;17.038;2023-04-24T02:01:05;26.02;;;18.20;;
39404;SDS011;25121;51.090;17.038;2023-04-24T02:02:31;30.20;;;18.70;;
39404;SDS011;25121;51.090;17.038;2023-04-24T02:03:56;25.88;;;18.85;;
39404;SDS011;25121;51.090;17.038;2023-04-24T02:05:18;26.30;;;18.42;;
39404;SDS011;25121;51.090;17.038;2023-04-24T02:06:40;30.92;;;19.75;;
39404;SDS011;25121;51.090;17.038;2023-04-24T02:08:03;26.00;;;17.90;;
39404;SDS011;25121;51.090;17.038;2023-04-24T02:09:30;27.35;;;18.52;;
39404;SDS011;25121;51.090;17.038;2023-04-24T02:10:51;25.30;;;19.48;;
39404;SDS011;25121;51.090;17.038;2023-04-24T02:12:13;27.25;;;20.42;;
39404;SDS011;25121;51.090;17.038;2023-04-24T02:13:37;33.35;;;21.02;;
39404;SDS011;25121;51.090;17.038;2023-04-24T02:14:58;26.88;;;18.98;;
39404;SDS011;25121;51.090;17.038;2023-04-24T02:16:21;28.50;;;19.90;;
39404;SDS011;25121;51.090;17.038;2023-04-24T02:17:43;25.83;;;20.42;;
39404;SDS011;25121;51.090;17.038;2023-04-24T02:19:05;28.60;;;20.17;;
39404;SDS011;25121;51.090;17.038;2023-04-24T02:20:27;31.13;;;22.00;;
39404;SDS011;25121;51.090;17.038;2023-04-24T02:21:49;29.30;;;21.65;;
39404;SDS011;25121;51.090;17.038;2023-04-24T02:23:12;34.50;;;23.15;;
39404;SDS011;25121;51.090;17.038;2023-04-24T02:24:38;32.38;;;20.25;;
39404;SDS011;25121;51.090;17.038;2023-04-24T02:26:00;31.20;;;21.85;;
39404;SDS011;25121;51.090;17.038;2023-04-24T02:27:31;29.10;;;21.20;;
39404;SDS011;25121;51.090;17.038;2023-04-24T02:29:01;31.95;;;22.02;;
39404;SDS011;25121;51.090;17.038;2023-04-24T02:30:22;28.85;;;21.65;;
39404;SDS011;25121;51.090;17.038;2023-04-24T02:31:45;30.20;;;20.83;;
39404;SDS011;25121;51.090;17.038;2023-04-24T02:33:07;32.65;;;20.23;;
39404;SDS011;25121;51.090;17.038;2023-04-24T02:34:30;27.85;;;19.65;;
39404;SDS011;25121;51.090;17.038;2023-04-24T02:35:52;29.67;;;20.27;;
39404;SDS011;25121;51.090;17.038;2023-04-24T02:37:13;27.85;;;19.25;;
39404;SDS011;25121;51.090;17.038;2023-04-24T02:38:37;29.40;;;20.50;;
39404;SDS011;25121;51.090;17.038;2023-04-24T02:40:00;30.17;;;21.83;;
39404;SDS011;25121;51.090;17.038;2023-04-24T02:41:22;27.85;;;20.63;;
39404;SDS011;25121;51.090;17.038;2023-04-24T02:42:45;26.52;;;20.65;;
39404;SDS011;25121;51.090;17.038;2023-04-24T02:44:07;28.08;;;20.35;;
39404;SDS011;25121;51.090;17.038;2023-04-24T02:45:32;28.40;;;21.58;;
39404;SDS011;25121;51.090;17.038;2023-04-24T02:46:55;27.48;;;21.90;;
39404;SDS011;25121;51.090;17.038;2023-04-24T02:48:17;30.70;;;23.13;;
39404;SDS011;25121;51.090;17.038;2023-04-24T02:49:38;31.40;;;23.52;;
39404;SDS011;25121;51.090;17.038;2023-04-24T02:51:01;31.70;;;20.08;;
39404;SDS011;25121;51.090;17.038;2023-04-24T02:52:22;30.33;;;21.67;;
39404;SDS011;25121;51.090;17.038;2023-04-24T02:53:48;31.63;;;22.48;;
39404;SDS011;25121;51.090;17.038;2023-04-24T02:55:10;31.65;;;21.77;;
39404;SDS011;25121;51.090;17.038;2023-04-24T02:56:50;30.35;;;21.73;;
39404;SDS011;25121;51.090;17.038;2023-04-24T02:59:11;41.22;;;23.92;;
39404;SDS011;25121;51.090;17.038;2023-04-24T03:00:36;29.38;;;22.35;;
39404;SDS011;25121;51.090;17.038;2023-04-24T03:01:57;28.10;;;20.02;;
39404;SDS011;25121;51.090;17.038;2023-04-24T03:03:20;34.80;;;25.52;;
39404;SDS011;25121;51.090;17.038;2023-04-24T03:04:41;26.25;;;21.38;;
39404;SDS011;25121;51.090;17.038;2023-04-24T03:06:04;28.98;;;21.33;;
39404;SDS011;25121;51.090;17.038;2023-04-24T03:07:26;36.05;;;25.80;;
39404;SDS011;25121;51.090;17.038;2023-04-24T03:08:50;31.88;;;24.27;;
39404;SDS011;25121;51.090;17.038;2023-04-24T03:10:12;29.60;;;21.75;;
39404;SDS011;25121;51.090;17.038;2023-04-24T03:11:34;27.10;;;20.17;;
39404;SDS011;25121;51.090;17.038;2023-04-24T03:12:56;35.95;;;22.33;;
39404;SDS011;25121;51.090;17.038;2023-04-24T03:14:19;27.77;;;18.15;;
39404;SDS011;25121;51.090;17.038;2023-04-24T03:15:41;22.58;;;15.60;;
39404;SDS011;25121;51.090;17.038;2023-04-24T03:17:03;17.95;;;14.68;;
39404;SDS011;25121;51.090;17.038;2023-04-24T03:18:25;19.13;;;14.77;;
39404;SDS011;25121;51.090;17.038;2023-04-24T03:19:47;25.20;;;16.52;;
39404;SDS011;25121;51.090;17.038;2023-04-24T03:21:08;23.63;;;16.58;;
39404;SDS011;25121;51.090;17.038;2023-04-24T03:22:31;25.27;;;18.80;;
39404;SDS011;25121;51.090;17.038;2023-04-24T03:23:54;26.85;;;19.27;;
39404;SDS011;25121;51.090;17.038;2023-04-24T03:25:17;25.00;;;18.85;;
39404;SDS011;25121;51.090;17.038;2023-04-24T03:26:48;26.75;;;18.55;;
39404;SDS011;25121;51.090;17.038;2023-04-24T03:28:50;28.58;;;18.52;;
39404;SDS011;25121;51.090;17.038;2023-04-24T03:30:13;29.20;;;20.63;;
39404;SDS011;25121;51.090;17.038;2023-04-24T03:31:44;27.13;;;19.83;;
39404;SDS011;25121;51.090;17.038;2023-04-24T03:33:06;26.40;;;19.95;;
39404;SDS011;25121;51.090;17.038;2023-04-24T03:34:33;28.98;;;19.52;;
39404;SDS011;25121;51.090;17.038;2023-04-24T03:35:56;27.88;;;19.25;;
39404;SDS011;25121;51.090;17.038;2023-04-24T03:37:21;24.73;;;19.58;;
39404;SDS011;25121;51.090;17.038;2023-04-24T03:38:59;27.85;;;20.30;;
39404;SDS011;25121;51.090;17.038;2023-04-24T03:40:26;32.10;;;22.33;;
39404;SDS011;25121;51.090;17.038;2023-04-24T03:41:51;31.80;;;21.80;;
39404;SDS011;25121;51.090;17.038;2023-04-24T03:43:19;23.98;;;18.95;;
39404;SDS011;25121;51.090;17.038;2023-04-24T03:44:41;27.42;;;21.83;;
39404;SDS011;25121;51.090;17.038;2023-04-24T03:46:04;32.00;;;22.20;;
39404;SDS011;25121;51.090;17.038;2023-04-24T03:47:30;29.60;;;22.80;;
39404;SDS011;25121;51.090;17.038;2023-04-24T03:48:54;28.90;;;21.70;;
39404;SDS011;25121;51.090;17.038;2023-04-24T03:50:21;35.60;;;26.95;;
39404;SDS011;25121;51.090;17.038;2023-04-24T03:51:43;33.20;;;23.58;;
39404;SDS011;25121;51.090;17.038;2023-04-24T03:53:16;35.45;;;25.10;;
39404;SDS011;25121;51.090;17.038;2023-04-24T03:54:39;30.30;;;22.58;;
39404;SDS011;25121;51.090;17.038;2023-04-24T03:56:01;36.65;;;24.25;;
39404;SDS011;25121;51.090;17.038;2023-04-24T03:57:28;35.83;;;23.38;;
39404;SDS011;25121;51.090;17.038;2023-04-24T03:59:03;43.55;;;25.00;;
39404;SDS011;25121;51.090;17.038;2023-04-24T04:00:31;29.58;;;22.70;;
39404;SDS011;25121;51.090;17.038;2023-04-24T04:02:25;34.25;;;25.02;;
39404;SDS011;25121;51.090;17.038;2023-04-24T04:03:48;30.73;;;23.88;;
39404;SDS011;25121;51.090;17.038;2023-04-24T04:05:13;33.85;;;24.70;;
39404;SDS011;25121;51.090;17.038;2023-04-24T04:06:35;28.27;;;22.15;;
39404;SDS011;25121;51.090;17.038;2023-04-24T04:07:58;28.65;;;21.77;;
39404;SDS011;25121;51.090;17.038;2023-04-24T04:09:19;31.10;;;22.15;;
39404;SDS011;25121;51.090;17.038;2023-04-24T04:10:43;29.02;;;20.90;;
39404;SDS011;25121;51.090;17.038;2023-04-24T04:12:08;35.38;;;23.20;;
39404;SDS011;25121;51.090;17.038;2023-04-24T04:13:34;28.17;;;20.48;;
39404;SDS011;25121;51.090;17.038;2023-04-24T04:14:56;24.00;;;19.35;;
39404;SDS011;25121;51.090;17.038;2023-04-24T04:16:19;26.67;;;20.52;;
39404;SDS011;25121;51.090;17.038;2023-04-24T04:17:42;26.00;;;19.95;;
39404;SDS011;25121;51.090;17.038;2023-04-24T04:19:10;28.15;;;21.50;;
39404;SDS011;25121;51.090;17.038;2023-04-24T04:20:33;27.75;;;20.83;;
39404;SDS011;25121;51.090;17.038;2023-04-24T04:21:56;26.75;;;19.00;;
39404;SDS011;25121;51.090;17.038;2023-04-24T04:23:41;28.40;;;20.85;;
39404;SDS011;25121;51.090;17.038;2023-04-24T04:25:21;25.80;;;19.88;;
39404;SDS011;25121;51.090;17.038;2023-04-24T04:26:46;28.30;;;21.15;;
39404;SDS011;25121;51.090;17.038;2023-04-24T04:28:21;27.55;;;19.60;;
39404;SDS011;25121;51.090;17.038;2023-04-24T04:29:45;27.08;;;20.52;;
39404;SDS011;25121;51.090;17.038;2023-04-24T04:31:09;30.90;;;19.52;;
39404;SDS011;25121;51.090;17.038;2023-04-24T04:32:31;27.20;;;19.92;;
39404;SDS011;25121;51.090;17.038;2023-04-24T04:33:56;28.77;;;19.35;;
39404;SDS011;25121;51.090;17.038;2023-04-24T04:35:20;29.90;;;20.73;;
39404;SDS011;25121;51.090;17.038;2023-04-24T04:36:44;30.60;;;22.50;;
39404;SDS011;25121;51.090;17.038;2023-04-24T04:38:31;28.02;;;20.08;;
39404;SDS011;25121;51.090;17.038;2023-04-24T04:40:10;23.33;;;18.25;;
39404;SDS011;25121;51.090;17.038;2023-04-24T04:41:42;27.08;;;21.58;;
39404;SDS011;25121;51.090;17.038;2023-04-24T04:43:08;27.10;;;19.48;;
39404;SDS011;25121;51.090;17.038;2023-04-24T04:44:36;27.40;;;21.13;;
39404;SDS011;25121;51.090;17.038;2023-04-24T04:46:01;30.42;;;19.60;;
39404;SDS011;25121;51.090;17.038;2023-04-24T04:47:42;27.15;;;19.20;;
39404;SDS011;25121;51.090;17.038;2023-04-24T04:49:06;28.23;;;19.50;;
39404;SDS011;25121;51.090;17.038;2023-04-24T04:50:48;29.70;;;21.02;;
39404;SDS011;25121;51.090;17.038;2023-04-24T04:52:13;25.52;;;17.38;;
39404;SDS011;25121;51.090;17.038;2023-04-24T04:53:40;27.27;;;19.50;;
39404;SDS011;25121;51.090;17.038;2023-04-24T04:55:05;23.60;;;17.73;;
39404;SDS011;25121;51.090;17.038;2023-04-24T04:56:51;21.35;;;17.95;;
39404;SDS011;25121;51.090;17.038;2023-04-24T04:58:16;22.30;;;17.30;;
39404;SDS011;25121;51.090;17.038;2023-04-24T04:59:41;26.42;;;15.30;;
39404;SDS011;25121;51.090;17.038;2023-04-24T05:01:15;27.70;;;15.82;;
39404;SDS011;25121;51.090;17.038;2023-04-24T05:02:43;19.80;;;15.02;;
39404;SDS011;25121;51.090;17.038;2023-04-24T05:04:10;25.77;;;15.80;;
39404;SDS011;25121;51.090;17.038;2023-04-24T05:05:39;22.85;;;14.80;;
39404;SDS011;25121;51.090;17.038;2023-04-24T05:07:06;27.48;;;15.73;;
39404;SDS011;25121;51.090;17.038;2023-04-24T05:08:32;18.85;;;14.68;;
39404;SDS011;25121;51.090;17.038;2023-04-24T05:09:56;17.50;;;14.38;;
39404;SDS011;25121;51.090;17.038;2023-04-24T05:11:19;19.13;;;13.70;;
39404;SDS011;25121;51.090;17.038;2023-04-24T05:12:52;18.25;;;12.40;;
39404;SDS011;25121;51.090;17.038;2023-04-24T05:14:35;21.55;;;14.43;;
39404;SDS011;25121;51.090;17.038;2023-04-24T05:16:14;20.77;;;14.95;;
39404;SDS011;25121;51.090;17.038;2023-04-24T05:17:47;15.75;;;11.35;;
39404;SDS011;25121;51.090;17.038;2023-04-24T05:19:10;20.85;;;14.02;;
39404;SDS011;25121;51.090;17.038;2023-04-24T05:20:36;18.85;;;11.98;;
39404;SDS011;25121;51.090;17.038;2023-04-24T05:24:03;16.98;;;11.18;;
39404;SDS011;25121;51.090;17.038;2023-04-24T05:25:39;21.70;;;12.30;;
39404;SDS011;25121;51.090;17.038;2023-04-24T05:27:07;18.77;;;12.30;;
39404;SDS011;25121;51.090;17.038;2023-04-24T05:28:58;14.32;;;10.90;;
39404;SDS011;25121;51.090;17.038;2023-04-24T05:30:26;13.05;;;10.55;;
39404;SDS011;25121;51.090;17.038;2023-04-24T05:31:48;17.40;;;12.23;;
39404;SDS011;25121;51.090;17.038;2023-04-24T05:33:20;24.35;;;12.25;;
39404;SDS011;25121;51.090;17.038;2023-04-24T05:34:51;16.20;;;12.73;;
39404;SDS011;25121;51.090;17.038;2023-04-24T05:36:13;15.63;;;10.90;;
39404;SDS011;25121;51.090;17.038;2023-04-24T05:37:40;18.52;;;11.25;;
39404;SDS011;25121;51.090;17.038;2023-04-24T05:39:10;22.90;;;12.55;;
39404;SDS011;25121;51.090;17.038;2023-04-24T05:40:34;15.38;;;10.88;;
39404;SDS011;25121;51.090;17.038;2023-04-24T05:41:57;13.38;;;11.30;;
39404;SDS011;25121;51.090;17.038;2023-04-24T05:44:44;18.65;;;11.07;;
39404;SDS011;25121;51.090;17.038;2023-04-24T05:46:08;21.10;;;11.68;;
39404;SDS011;25121;51.090;17.038;2023-04-24T05:47:29;16.63;;;10.88;;
39404;SDS011;25121;51.090;17.038;2023-04-24T05:48:55;14.27;;;10.27;;
39404;SDS011;25121;51.090;17.038;2023-04-24T05:50:24;15.33;;;9.40;;
39404;SDS011;25121;51.090;17.038;2023-04-24T05:51:49;13.93;;;8.10;;
39404;SDS011;25121;51.090;17.038;2023-04-24T05:53:13;13.77;;;9.45;;
39404;SDS011;25121;51.090;17.038;2023-04-24T05:54:38;12.13;;;9.77;;
39404;SDS011;25121;51.090;17.038;2023-04-24T05:56:05;11.30;;;8.98;;
39404;SDS011;25121;51.090;17.038;2023-04-24T05:57:28;12.77;;;9.50;;
39404;SDS011;25121;51.090;17.038;2023-04-24T05:58:55;15.85;;;9.23;;
39404;SDS011;25121;51.090;17.038;2023-04-24T06:00:18;13.38;;;9.48;;
39404;SDS011;25121;51.090;17.038;2023-04-24T06:01:52;16.55;;;8.60;;
39404;SDS011;25121;51.090;17.038;2023-04-24T06:03:16;11.50;;;10.05;;
39404;SDS011;25121;51.090;17.038;2023-04-24T06:04:41;15.75;;;8.85;;
39404;SDS011;25121;51.090;17.038;2023-04-24T06:06:03;10.77;;;9.13;;
39404;SDS011;25121;51.090;17.038;2023-04-24T06:07:28;9.40;;;7.97;;
39404;SDS011;25121;51.090;17.038;2023-04-24T06:08:56;14.40;;;8.38;;
39404;SDS011;25121;51.090;17.038;2023-04-24T06:10:20;13.10;;;9.05;;
39404;SDS011;25121;51.090;17.038;2023-04-24T06:11:45;16.48;;;9.00;;
39404;SDS011;25121;51.090;17.038;2023-04-24T06:13:10;12.93;;;9.23;;
39404;SDS011;25121;51.090;17.038;2023-04-24T06:14:50;10.80;;;8.90;;
39404;SDS011;25121;51.090;17.038;2023-04-24T06:16:41;15.63;;;8.73;;
39404;SDS011;25121;51.090;17.038;2023-04-24T06:18:29;12.98;;;8.27;;
39404;SDS011;25121;51.090;17.038;2023-04-24T06:19:57;13.43;;;8.05;;
39404;SDS011;25121;51.090;17.038;2023-04-24T06:21:29;12.75;;;7.70;;
39404;SDS011;25121;51.090;17.038;2023-04-24T06:25:29;11.38;;;8.02;;
39404;SDS011;25121;51.090;17.038;2023-04-24T06:26:56;11.13;;;8.05;;
39404;SDS011;25121;51.090;17.038;2023-04-24T06:28:23;19.63;;;7.95;;
39404;SDS011;25121;51.090;17.038;2023-04-24T06:29:48;10.90;;;8.35;;
39404;SDS011;25121;51.090;17.038;2023-04-24T06:37:10;14.07;;;7.68;;
39404;SDS011;25121;51.090;17.038;2023-04-24T06:38:49;21.60;;;9.40;;
39404;SDS011;25121;51.090;17.038;2023-04-24T06:40:14;21.90;;;8.77;;
39404;SDS011;25121;51.090;17.038;2023-04-24T06:41:38;17.17;;;8.27;;
39404;SDS011;25121;51.090;17.038;2023-04-24T06:43:18;15.80;;;7.70;;
39404;SDS011;25121;51.090;17.038;2023-04-24T06:44:46;17.40;;;9.10;;
39404;SDS011;25121;51.090;17.038;2023-04-24T06:46:23;9.82;;;8.35;;
39404;SDS011;25121;51.090;17.038;2023-04-24T06:47:54;16.50;;;8.45;;
39404;SDS011;25121;51.090;17.038;2023-04-24T06:49:22;19.42;;;8.70;;
39404;SDS011;25121;51.090;17.038;2023-04-24T06:51:08;17.52;;;8.80;;
39404;SDS011;25121;51.090;17.038;2023-04-24T06:53:14;11.82;;;7.72;;
39404;SDS011;25121;51.090;17.038;2023-04-24T06:54:36;18.00;;;9.95;;
39404;SDS011;25121;51.090;17.038;2023-04-24T06:58:14;15.50;;;9.30;;
39404;SDS011;25121;51.090;17.038;2023-04-24T06:59:41;11.30;;;8.43;;
39404;SDS011;25121;51.090;17.038;2023-04-24T07:01:26;10.70;;;7.50;;
39404;SDS011;25121;51.090;17.038;2023-04-24T07:02:56;14.48;;;9.40;;
39404;SDS011;25121;51.090;17.038;2023-04-24T07:04:27;16.83;;;8.13;;
39404;SDS011;25121;51.090;17.038;2023-04-24T07:06:09;15.13;;;8.23;;
39404;SDS011;25121;51.090;17.038;2023-04-24T07:22:51;17.83;;;7.90;;
39404;SDS011;25121;51.090;17.038;2023-04-24T07:25:22;17.63;;;8.77;;
39404;SDS011;25121;51.090;17.038;2023-04-24T07:27:10;15.52;;;9.43;;
39404;SDS011;25121;51.090;17.038;2023-04-24T07:28:38;16.42;;;8.40;;
39404;SDS011;25121;51.090;17.038;2023-04-24T07:30:04;13.00;;;8.55;;
39404;SDS011;25121;51.090;17.038;2023-04-24T07:31:27;14.77;;;8.65;;
39404;SDS011;25121;51.090;17.038;2023-04-24T07:32:50;18.02;;;9.25;;
39404;SDS011;25121;51.090;17.038;2023-04-24T07:34:15;21.73;;;9.85;;
39404;SDS011;25121;51.090;17.038;2023-04-24T07:35:42;14.38;;;9.55;;
39404;SDS011;25121;51.090;17.038;2023-04-24T07:37:04;12.10;;;8.70;;
39404;SDS011;25121;51.090;17.038;2023-04-24T07:38:32;9.90;;;8.55;;
39404;SDS011;25121;51.090;17.038;2023-04-24T07:40:00;10.60;;;8.35;;
39404;SDS011;25121;51.090;17.038;2023-04-24T07:41:31;10.40;;;7.70;;
39404;SDS011;25121;51.090;17.038;2023-04-24T07:42:56;12.18;;;8.60;;
39404;SDS011;25121;51.090;17.038;2023-04-24T07:44:23;14.27;;;8.27;;
39404;SDS011;25121;51.090;17.038;2023-04-24T07:45:45;26.45;;;10.15;;
39404;SDS011;25121;51.090;17.038;2023-04-24T07:47:08;11.98;;;8.23;;
39404;SDS011;25121;51.090;17.038;2023-04-24T07:48:31;14.45;;;7.53;;
39404;SDS011;25121;51.090;17.038;2023-04-24T07:49:54;9.93;;;7.22;;
39404;SDS011;25121;51.090;17.038;2023-04-24T07:51:20;8.38;;;7.57;;
39404;SDS011;25121;51.090;17.038;2023-04-24T07:52:46;11.85;;;7.90;;
39404;SDS011;25121;51.090;17.038;2023-04-24T07:54:09;13.63;;;7.65;;
39404;SDS011;25121;51.090;17.038;2023-04-24T07:55:37;11.68;;;8.18;;
39404;SDS011;25121;51.090;17.038;2023-04-24T07:57:23;13.38;;;7.95;;
39404;SDS011;25121;51.090;17.038;2023-04-24T07:59:12;11.85;;;7.68;;
39404;SDS011;25121;51.090;17.038;2023-04-24T08:15:19;15.90;;;9.05;;
39404;SDS011;25121;51.090;17.038;2023-04-24T08:17:00;13.02;;;8.70;;
39404;SDS011;25121;51.090;17.038;2023-04-24T08:18:54;14.20;;;8.32;;
39404;SDS011;25121;51.090;17.038;2023-04-24T08:21:12;12.05;;;7.95;;
39404;SDS011;25121;51.090;17.038;2023-04-24T08:26:06;15.43;;;9.32;;
39404;SDS011;25121;51.090;17.038;2023-04-24T08:27:32;10.38;;;8.80;;
39404;SDS011;25121;51.090;17.038;2023-04-24T08:29:00;12.50;;;8.73;;
39404;SDS011;25121;51.090;17.038;2023-04-24T08:30:24;16.02;;;8.93;;
39404;SDS011;25121;51.090;17.038;2023-04-24T08:31:50;14.63;;;9.38;;
39404;SDS011;25121;51.090;17.038;2023-04-24T08:33:14;14.95;;;9.75;;
39404;SDS011;25121;51.090;17.038;2023-04-24T08:34:37;12.25;;;8.63;;
39404;SDS011;25121;51.090;17.038;2023-04-24T08:36:11;13.50;;;9.30;;
39404;SDS011;25121;51.090;17.038;2023-04-24T08:37:34;10.07;;;8.23;;
39404;SDS011;25121;51.090;17.038;2023-04-24T08:39:01;12.98;;;9.18;;
39404;SDS011;25121;51.090;17.038;2023-04-24T08:40:27;12.40;;;9.48;;
39404;SDS011;25121;51.090;17.038;2023-04-24T08:41:56;11.32;;;9.60;;
39404;SDS011;25121;51.090;17.038;2023-04-24T08:43:30;13.95;;;9.50;;
39404;SDS011;25121;51.090;17.038;2023-04-24T09:00:09;11.18;;;9.93;;
39404;SDS011;25121;51.090;17.038;2023-04-24T09:01:38;17.65;;;9.00;;
39404;SDS011;25121;51.090;17.038;2023-04-24T09:03:37;15.77;;;9.27;;
39404;SDS011;25121;51.090;17.038;2023-04-24T09:05:09;17.08;;;9.20;;
39404;SDS011;25121;51.090;17.038;2023-04-24T09:06:33;11.77;;;7.82;;
39404;SDS011;25121;51.090;17.038;2023-04-24T09:07:56;13.75;;;7.60;;
39404;SDS011;25121;51.090;17.038;2023-04-24T09:09:18;14.23;;;9.07;;
39404;SDS011;25121;51.090;17.038;2023-04-24T09:10:43;14.15;;;8.95;;
39404;SDS011;25121;51.090;17.038;2023-04-24T09:12:21;13.55;;;8.32;;
39404;SDS011;25121;51.090;17.038;2023-04-24T09:13:48;15.32;;;8.23;;
39404;SDS011;25121;51.090;17.038;2023-04-24T09:15:14;23.17;;;10.57;;
39404;SDS011;25121;51.090;17.038;2023-04-24T09:16:36;8.43;;;7.53;;
39404;SDS011;25121;51.090;17.038;2023-04-24T09:18:03;10.93;;;8.00;;
39404;SDS011;25121;51.090;17.038;2023-04-24T09:19:27;10.25;;;9.18;;
39404;SDS011;25121;51.090;17.038;2023-04-24T09:41:43;8.60;;;7.07;;
39404;SDS011;25121;51.090;17.038;2023-04-24T09:43:34;7.43;;;6.65;;
39404;SDS011;25121;51.090;17.038;2023-04-24T09:44:57;8.55;;;6.57;;
39404;SDS011;25121;51.090;17.038;2023-04-24T09:46:34;9.75;;;7.72;;
39404;SDS011;25121;51.090;17.038;2023-04-24T09:47:57;9.95;;;7.43;;
39404;SDS011;25121;51.090;17.038;2023-04-24T09:49:21;17.63;;;7.40;;
39404;SDS011;25121;51.090;17.038;2023-04-24T09:50:45;8.77;;;7.38;;